sensor_id;sensor_type;location;lat;lon;timestamp;pressure;altitude;pressure_sealevel;temperature;humidity
23281;BME280;11809;56.390;-3.266;2023-04-27T00:01:40;101461.25;;;15.02;50.39
23281;BME280;11809;56.390;-3.266;2023-04-27T00:04:07;101451.66;;;14.99;50.23
23281;BME280;11809;56.390;-3.266;2023-04-27T00:06:35;101466.69;;;14.99;50.35
23281;BME280;11809;56.390;-3.266;2023-04-27T00:09:02;101456.09;;;14.99;50.46
23281;BME280;11809;56.390;-3.266;2023-04-27T00:11:30;101458.03;;;14.95;50.31
23281;BME280;11809;56.390;-3.266;2023-04-27T00:13:57;101455.38;;;14.95;50.38
23281;BME280;11809;56.390;-3.266;2023-04-27T00:16:24;101444.97;;;14.91;50.71
23281;BME280;11809;56.390;-3.266;2023-04-27T00:18:51;101452.00;;;14.92;50.59
23281;BME280;11809;56.390;-3.266;2023-04-27T00:21:18;101438.03;;;14.88;50.60
23281;BME280;11809;56.390;-3.266;2023-04-27T00:23:45;101442.47;;;14.88;50.49
23281;BME280;11809;56.390;-3.266;2023-04-27T00:26:12;101446.06;;;14.87;50.48
23281;BME280;11809;56.390;-3.266;2023-04-27T00:28:39;101446.13;;;14.85;50.54
23281;BME280;11809;56.390;-3.266;2023-04-27T00:31:06;101441.78;;;14.84;50.92
23281;BME280;11809;56.390;-3.266;2023-04-27T00:33:33;101439.19;;;14.83;50.55
23281;BME280;11809;56.390;-3.266;2023-04-27T00:36:01;101434.88;;;14.80;50.77
23281;BME280;11809;56.390;-3.266;2023-04-27T00:38:29;101437.63;;;14.79;50.76
23281;BME280;11809;56.390;-3.266;2023-04-27T00:41:04;101437.66;;;14.77;50.71
23281;BME280;11809;56.390;-3.266;2023-04-27T00:43:40;101440.31;;;14.77;50.71
23281;BME280;11809;56.390;-3.266;2023-04-27T00:46:08;101439.53;;;14.75;51.09
23281;BME280;11809;56.390;-3.266;2023-04-27T00:48:36;101440.31;;;14.77;50.87
23281;BME280;11809;56.390;-3.266;2023-04-27T00:51:04;101436.03;;;14.75;51.06
23281;BME280;11809;56.390;-3.266;2023-04-27T00:53:32;101434.31;;;14.74;51.27
23281;BME280;11809;56.390;-3.266;2023-04-27T00:55:59;101428.22;;;14.72;51.07
23281;BME280;11809;56.390;-3.266;2023-04-27T00:58:26;101434.38;;;14.72;50.99
23281;BME280;11809;56.390;-3.266;2023-04-27T01:00:53;101431.72;;;14.72;51.06
23281;BME280;11809;56.390;-3.266;2023-04-27T01:03:21;101423.78;;;14.72;50.97
23281;BME280;11809;56.390;-3.266;2023-04-27T01:05:48;101414.16;;;14.71;51.21
23281;BME280;11809;56.390;-3.266;2023-04-27T01:08:16;101417.72;;;14.70;51.05
23281;BME280;11809;56.390;-3.266;2023-04-27T01:10:42;101417.78;;;14.69;50.95
23281;BME280;11809;56.390;-3.266;2023-04-27T01:13:10;101415.97;;;14.69;51.31
23281;BME280;11809;56.390;-3.266;2023-04-27T01:15:37;101413.50;;;14.66;51.19
23281;BME280;11809;56.390;-3.266;2023-04-27T01:18:04;101419.72;;;14.65;51.20
23281;BME280;11809;56.390;-3.266;2023-04-27T01:20:31;101420.63;;;14.64;50.94
23281;BME280;11809;56.390;-3.266;2023-04-27T01:22:58;101411.84;;;14.64;51.07
23281;BME280;11809;56.390;-3.266;2023-04-27T01:25:26;101404.75;;;14.64;51.23
23281;BME280;11809;56.390;-3.266;2023-04-27T01:27:53;101397.75;;;14.63;51.36
23281;BME280;11809;56.390;-3.266;2023-04-27T01:30:20;101396.81;;;14.64;51.32
23281;BME280;11809;56.390;-3.266;2023-04-27T01:32:50;101388.97;;;14.63;51.30
23281;BME280;11809;56.390;-3.266;2023-04-27T01:35:17;101388.03;;;14.64;51.24
23281;BME280;11809;56.390;-3.266;2023-04-27T01:37:44;101381.88;;;14.63;51.31
23281;BME280;11809;56.390;-3.266;2023-04-27T01:40:11;101388.97;;;14.63;51.25
23281;BME280;11809;56.390;-3.266;2023-04-27T01:42:39;101388.97;;;14.63;51.20
23281;BME280;11809;56.390;-3.266;2023-04-27T01:45:07;101388.97;;;14.63;51.54
23281;BME280;11809;56.390;-3.266;2023-04-27T01:47:34;101382.81;;;14.62;51.54
23281;BME280;11809;56.390;-3.266;2023-04-27T01:50:01;101383.66;;;14.63;51.47
23281;BME280;11809;56.390;-3.266;2023-04-27T01:52:28;101384.66;;;14.60;51.28
23281;BME280;11809;56.390;-3.266;2023-04-27T01:54:55;101384.72;;;14.58;51.39
23281;BME280;11809;56.390;-3.266;2023-04-27T01:57:22;101388.22;;;14.59;51.40
23281;BME280;11809;56.390;-3.266;2023-04-27T01:59:49;101389.97;;;14.60;51.38
23281;BME280;11809;56.390;-3.266;2023-04-27T02:02:16;101393.47;;;14.61;51.38
23281;BME280;11809;56.390;-3.266;2023-04-27T02:04:43;101389.81;;;14.63;51.53
23281;BME280;11809;56.390;-3.266;2023-04-27T02:07:11;101382.94;;;14.59;51.55
23281;BME280;11809;56.390;-3.266;2023-04-27T02:09:38;101387.22;;;14.62;51.45
23281;BME280;11809;56.390;-3.266;2023-04-27T02:12:05;101375.78;;;14.61;51.59
23281;BME280;11809;56.390;-3.266;2023-04-27T02:14:32;101364.38;;;14.61;51.44
23281;BME280;11809;56.390;-3.266;2023-04-27T02:16:59;101361.78;;;14.59;51.42
23281;BME280;11809;56.390;-3.266;2023-04-27T02:19:26;101353.84;;;14.59;51.54
23281;BME280;11809;56.390;-3.266;2023-04-27T02:21:53;101344.22;;;14.58;51.55
23281;BME280;11809;56.390;-3.266;2023-04-27T02:24:19;101342.41;;;14.58;51.68
23281;BME280;11809;56.390;-3.266;2023-04-27T02:26:47;101337.06;;;14.60;51.65
23281;BME280;11809;56.390;-3.266;2023-04-27T02:29:14;101341.47;;;14.60;51.85
23281;BME280;11809;56.390;-3.266;2023-04-27T02:31:41;101351.19;;;14.59;51.53
23281;BME280;11809;56.390;-3.266;2023-04-27T02:34:08;101354.63;;;14.61;51.55
23281;BME280;11809;56.390;-3.266;2023-04-27T02:36:35;101349.50;;;14.58;51.66
23281;BME280;11809;56.390;-3.266;2023-04-27T02:39:02;101356.34;;;14.62;51.90
23281;BME280;11809;56.390;-3.266;2023-04-27T02:41:32;101351.94;;;14.63;51.68
23281;BME280;11809;56.390;-3.266;2023-04-27T02:43:59;101358.09;;;14.63;51.61
23281;BME280;11809;56.390;-3.266;2023-04-27T02:46:26;101352.06;;;14.60;51.68
23281;BME280;11809;56.390;-3.266;2023-04-27T02:48:54;101361.63;;;14.62;51.39
23281;BME280;11809;56.390;-3.266;2023-04-27T02:51:21;101358.22;;;14.60;51.74
23281;BME280;11809;56.390;-3.266;2023-04-27T02:53:48;101355.44;;;14.63;51.61
23281;BME280;11809;56.390;-3.266;2023-04-27T02:56:15;101356.31;;;14.64;51.59
23281;BME280;11809;56.390;-3.266;2023-04-27T02:58:42;101343.91;;;14.64;51.73
23281;BME280;11809;56.390;-3.266;2023-04-27T03:01:10;101336.06;;;14.63;51.47
23281;BME280;11809;56.390;-3.266;2023-04-27T03:03:37;101347.50;;;14.63;52.07
23281;BME280;11809;56.390;-3.266;2023-04-27T03:06:07;101335.97;;;14.64;51.65
23281;BME280;11809;56.390;-3.266;2023-04-27T03:08:34;101337.78;;;14.64;51.67
23281;BME280;11809;56.390;-3.266;2023-04-27T03:11:01;101338.63;;;14.64;51.61
23281;BME280;11809;56.390;-3.266;2023-04-27T03:13:28;101335.19;;;14.62;51.96
23281;BME280;11809;56.390;-3.266;2023-04-27T03:15:55;101336.78;;;14.66;52.12
23281;BME280;11809;56.390;-3.266;2023-04-27T03:18:23;101343.78;;;14.67;51.61
23281;BME280;11809;56.390;-3.266;2023-04-27T03:20:50;101342.91;;;14.67;51.52
23281;BME280;11809;56.390;-3.266;2023-04-27T03:23:17;101338.47;;;14.67;51.54
23281;BME280;11809;56.390;-3.266;2023-04-27T03:25:44;101340.34;;;14.65;51.55
23281;BME280;11809;56.390;-3.266;2023-04-27T03:28:11;101348.19;;;14.67;51.79
23281;BME280;11809;56.390;-3.266;2023-04-27T03:30:38;101349.94;;;14.68;52.00
23281;BME280;11809;56.390;-3.266;2023-04-27T03:33:06;101346.41;;;14.67;51.63
23281;BME280;11809;56.390;-3.266;2023-04-27T03:35:33;101352.47;;;14.69;51.71
23281;BME280;11809;56.390;-3.266;2023-04-27T03:38:00;101348.06;;;14.70;51.72
23281;BME280;11809;56.390;-3.266;2023-04-27T03:40:27;101344.53;;;14.69;51.88
23281;BME280;11809;56.390;-3.266;2023-04-27T03:42:54;101347.19;;;14.69;51.96
23281;BME280;11809;56.390;-3.266;2023-04-27T03:45:24;101354.06;;;14.73;52.48
23281;BME280;11809;56.390;-3.266;2023-04-27T03:47:51;101352.34;;;14.72;51.72
23281;BME280;11809;56.390;-3.266;2023-04-27T03:50:18;101356.78;;;14.72;51.90
23281;BME280;11809;56.390;-3.266;2023-04-27T03:52:45;101352.34;;;14.72;51.79
23281;BME280;11809;56.390;-3.266;2023-04-27T03:55:12;101350.66;;;14.71;51.76
23281;BME280;11809;56.390;-3.266;2023-04-27T03:57:39;101352.34;;;14.72;51.86
23281;BME280;11809;56.390;-3.266;2023-04-27T04:00:07;101357.63;;;14.72;51.93
23281;BME280;11809;56.390;-3.266;2023-04-27T04:02:37;101349.66;;;14.74;51.99
23281;BME280;11809;56.390;-3.266;2023-04-27T04:05:05;101351.44;;;14.73;51.84
23281;BME280;11809;56.390;-3.266;2023-04-27T04:07:32;101350.53;;;14.74;52.01
23281;BME280;11809;56.390;-3.266;2023-04-27T04:09:59;101348.69;;;14.75;52.01
23281;BME280;11809;56.390;-3.266;2023-04-27T04:12:26;101351.34;;;14.75;52.01
23281;BME280;11809;56.390;-3.266;2023-04-27T04:14:53;101336.44;;;14.74;51.67
23281;BME280;11809;56.390;-3.266;2023-04-27T04:17:20;101336.19;;;14.78;51.98
23281;BME280;11809;56.390;-3.266;2023-04-27T04:19:47;101343.28;;;14.78;51.91
23281;BME280;11809;56.390;-3.266;2023-04-27T04:22:14;101337.06;;;14.79;51.83
23281;BME280;11809;56.390;-3.266;2023-04-27T04:24:41;101324.75;;;14.78;51.73
23281;BME280;11809;56.390;-3.266;2023-04-27T04:27:08;101319.53;;;14.76;51.81
23281;BME280;11809;56.390;-3.266;2023-04-27T04:29:35;101321.19;;;14.79;52.08
23281;BME280;11809;56.390;-3.266;2023-04-27T04:32:02;101315.94;;;14.77;51.88
23281;BME280;11809;56.390;-3.266;2023-04-27T04:34:29;101311.53;;;14.78;51.88
23281;BME280;11809;56.390;-3.266;2023-04-27T04:36:56;101312.31;;;14.80;52.09
23281;BME280;11809;56.390;-3.266;2023-04-27T04:39:23;101298.88;;;14.84;52.71
23281;BME280;11809;56.390;-3.266;2023-04-27T04:41:50;101300.66;;;14.84;51.98
23281;BME280;11809;56.390;-3.266;2023-04-27T04:44:18;101305.16;;;14.82;51.47
23281;BME280;11809;56.390;-3.266;2023-04-27T04:46:46;101298.88;;;14.84;52.22
23281;BME280;11809;56.390;-3.266;2023-04-27T04:49:13;101295.13;;;14.88;52.61
23281;BME280;11809;56.390;-3.266;2023-04-27T04:51:41;101289.84;;;14.88;52.85
23281;BME280;11809;56.390;-3.266;2023-04-27T04:54:09;101297.72;;;14.90;52.67
23281;BME280;11809;56.390;-3.266;2023-04-27T04:56:37;101301.16;;;14.92;52.86
23281;BME280;11809;56.390;-3.266;2023-04-27T04:59:04;101293.13;;;14.93;52.77
23281;BME280;11809;56.390;-3.266;2023-04-27T05:01:31;101293.13;;;14.93;53.14
23281;BME280;11809;56.390;-3.266;2023-04-27T05:03:58;101291.28;;;14.95;53.06
23281;BME280;11809;56.390;-3.266;2023-04-27T05:06:25;101286.00;;;14.95;53.13
23281;BME280;11809;56.390;-3.266;2023-04-27T05:08:53;101289.47;;;14.96;52.85
23281;BME280;11809;56.390;-3.266;2023-04-27T05:11:20;101285.91;;;14.97;52.90
23281;BME280;11809;56.390;-3.266;2023-04-27T05:13:47;101279.25;;;14.88;52.18
23281;BME280;11809;56.390;-3.266;2023-04-27T05:16:14;101281.13;;;14.86;51.91
23281;BME280;11809;56.390;-3.266;2023-04-27T05:18:42;101274.09;;;14.85;52.54
23281;BME280;11809;56.390;-3.266;2023-04-27T05:21:15;101265.34;;;14.85;52.50
23281;BME280;11809;56.390;-3.266;2023-04-27T05:23:43;101268.81;;;14.85;52.56
23281;BME280;11809;56.390;-3.266;2023-04-27T05:26:14;101262.53;;;14.88;52.63
23281;BME280;11809;56.390;-3.266;2023-04-27T05:28:42;101253.56;;;14.90;52.69
23281;BME280;11809;56.390;-3.266;2023-04-27T05:31:09;101250.78;;;14.93;52.56
23281;BME280;11809;56.390;-3.266;2023-04-27T05:33:36;101256.88;;;14.95;52.60
23281;BME280;11809;56.390;-3.266;2023-04-27T05:36:03;101269.78;;;15.01;52.46
23281;BME280;11809;56.390;-3.266;2023-04-27T05:38:30;101271.38;;;15.05;52.30
23281;BME280;11809;56.390;-3.266;2023-04-27T05:40:59;101271.38;;;15.05;52.36
23281;BME280;11809;56.390;-3.266;2023-04-27T05:43:26;101265.06;;;15.08;52.61
23281;BME280;11809;56.390;-3.266;2023-04-27T05:45:53;101269.38;;;15.10;52.52
23281;BME280;11809;56.390;-3.266;2023-04-27T05:48:20;101267.63;;;15.09;52.21
23281;BME280;11809;56.390;-3.266;2023-04-27T05:50:47;101270.09;;;15.14;52.45
23281;BME280;11809;56.390;-3.266;2023-04-27T05:53:14;101270.09;;;15.14;52.02
23281;BME280;11809;56.390;-3.266;2023-04-27T05:55:43;101265.63;;;15.14;51.92
23281;BME280;11809;56.390;-3.266;2023-04-27T05:58:09;101263.78;;;15.16;51.97
23281;BME280;11809;56.390;-3.266;2023-04-27T06:00:37;101257.53;;;15.17;52.14
23281;BME280;11809;56.390;-3.266;2023-04-27T06:03:04;101254.09;;;15.15;51.81
23281;BME280;11809;56.390;-3.266;2023-04-27T06:05:31;101256.59;;;15.18;51.98
23281;BME280;11809;56.390;-3.266;2023-04-27T06:08:00;101255.66;;;15.19;51.61
23281;BME280;11809;56.390;-3.266;2023-04-27T06:10:27;101254.72;;;15.21;51.95
23281;BME280;11809;56.390;-3.266;2023-04-27T06:12:54;101261.59;;;15.25;51.92
23281;BME280;11809;56.390;-3.266;2023-04-27T06:15:21;101257.16;;;15.25;51.90
23281;BME280;11809;56.390;-3.266;2023-04-27T06:17:48;101263.44;;;15.23;51.84
23281;BME280;11809;56.390;-3.266;2023-04-27T06:20:15;101260.03;;;15.21;51.82
23281;BME280;11809;56.390;-3.266;2023-04-27T06:22:42;101265.47;;;15.17;51.54
23281;BME280;11809;56.390;-3.266;2023-04-27T06:25:09;101267.19;;;15.18;51.97
23281;BME280;11809;56.390;-3.266;2023-04-27T06:27:36;101280.66;;;15.14;51.46
23281;BME280;11809;56.390;-3.266;2023-04-27T06:30:04;101267.97;;;15.03;50.87
23281;BME280;11809;56.390;-3.266;2023-04-27T06:32:32;101275.22;;;14.98;51.17
23281;BME280;11809;56.390;-3.266;2023-04-27T06:34:59;101271.03;;;14.94;51.34
23281;BME280;11809;56.390;-3.266;2023-04-27T06:37:26;101271.81;;;14.96;51.97
23281;BME280;11809;56.390;-3.266;2023-04-27T06:39:53;101273.34;;;14.83;50.79
23281;BME280;11809;56.390;-3.266;2023-04-27T06:42:21;101270.81;;;14.80;50.87
23281;BME280;11809;56.390;-3.266;2023-04-27T06:44:48;101265.41;;;14.83;51.82
23281;BME280;11809;56.390;-3.266;2023-04-27T06:47:15;101275.84;;;14.86;51.60
23281;BME280;11809;56.390;-3.266;2023-04-27T06:49:42;101264.16;;;14.90;52.00
23281;BME280;11809;56.390;-3.266;2023-04-27T06:52:09;101266.53;;;14.96;52.60
23281;BME280;11809;56.390;-3.266;2023-04-27T06:54:37;101265.38;;;15.02;52.67
23281;BME280;11809;56.390;-3.266;2023-04-27T06:57:04;101264.50;;;15.01;52.69
23281;BME280;11809;56.390;-3.266;2023-04-27T06:59:32;101272.44;;;15.01;52.53
23281;BME280;11809;56.390;-3.266;2023-04-27T07:01:59;101263.50;;;15.04;52.31
23281;BME280;11809;56.390;-3.266;2023-04-27T07:04:27;101267.00;;;15.04;52.17
23281;BME280;11809;56.390;-3.266;2023-04-27T07:06:54;101265.06;;;15.08;52.17
23281;BME280;11809;56.390;-3.266;2023-04-27T07:09:22;101274.81;;;15.07;52.16
23281;BME280;11809;56.390;-3.266;2023-04-27T07:11:53;101272.94;;;15.09;52.06
23281;BME280;11809;56.390;-3.266;2023-04-27T07:14:21;101274.66;;;15.10;52.08
23281;BME280;11809;56.390;-3.266;2023-04-27T07:16:48;101266.63;;;15.12;51.98
23281;BME280;11809;56.390;-3.266;2023-04-27T07:19:15;101256.91;;;15.12;51.85
23281;BME280;11809;56.390;-3.266;2023-04-27T07:21:42;101261.19;;;15.15;51.97
23281;BME280;11809;56.390;-3.266;2023-04-27T07:24:11;101257.47;;;15.19;52.11
23281;BME280;11809;56.390;-3.266;2023-04-27T07:26:38;101261.59;;;15.25;52.49
23281;BME280;11809;56.390;-3.266;2023-04-27T07:29:07;101258.00;;;15.26;52.30
23281;BME280;11809;56.390;-3.266;2023-04-27T07:31:52;101259.59;;;15.30;52.31
23281;BME280;11809;56.390;-3.266;2023-04-27T07:34:19;101253.47;;;15.28;52.21
23281;BME280;11809;56.390;-3.266;2023-04-27T07:36:50;101252.72;;;15.26;52.08
23281;BME280;11809;56.390;-3.266;2023-04-27T07:39:20;101253.34;;;15.31;52.24
23281;BME280;11809;56.390;-3.266;2023-04-27T07:41:47;101254.13;;;15.33;52.28
23281;BME280;11809;56.390;-3.266;2023-04-27T07:44:16;101245.25;;;15.34;52.15
23281;BME280;11809;56.390;-3.266;2023-04-27T07:46:44;101246.00;;;15.36;52.01
23281;BME280;11809;56.390;-3.266;2023-04-27T07:49:15;101245.97;;;15.37;51.99
23281;BME280;11809;56.390;-3.266;2023-04-27T07:51:42;101238.88;;;15.38;52.02
23281;BME280;11809;56.390;-3.266;2023-04-27T07:54:09;101239.66;;;15.40;51.99
23281;BME280;11809;56.390;-3.266;2023-04-27T07:56:40;101234.25;;;15.41;52.11
23281;BME280;11809;56.390;-3.266;2023-04-27T07:59:08;101242.91;;;15.45;52.08
23281;BME280;11809;56.390;-3.266;2023-04-27T08:01:35;101230.53;;;15.45;51.95
23281;BME280;11809;56.390;-3.266;2023-04-27T08:04:02;101234.06;;;15.46;51.75
23281;BME280;11809;56.390;-3.266;2023-04-27T08:06:30;101230.41;;;15.48;51.93
23281;BME280;11809;56.390;-3.266;2023-04-27T08:08:59;101230.41;;;15.48;51.68
23281;BME280;11809;56.390;-3.266;2023-04-27T08:11:27;101230.59;;;15.44;51.65
23281;BME280;11809;56.390;-3.266;2023-04-27T08:13:55;101215.72;;;15.41;51.51
23281;BME280;11809;56.390;-3.266;2023-04-27T08:16:22;101211.44;;;15.39;52.06
23281;BME280;11809;56.390;-3.266;2023-04-27T08:18:49;101220.19;;;15.41;51.74
23281;BME280;11809;56.390;-3.266;2023-04-27T08:21:16;101210.50;;;15.40;51.83
23281;BME280;11809;56.390;-3.266;2023-04-27T08:23:43;101207.88;;;15.40;52.08
23281;BME280;11809;56.390;-3.266;2023-04-27T08:26:14;101204.28;;;15.41;51.83
23281;BME280;11809;56.390;-3.266;2023-04-27T08:28:42;101192.03;;;15.38;51.85
23281;BME280;11809;56.390;-3.266;2023-04-27T08:31:09;101195.53;;;15.39;51.83
23281;BME280;11809;56.390;-3.266;2023-04-27T08:33:36;101195.47;;;15.40;51.66
23281;BME280;11809;56.390;-3.266;2023-04-27T08:36:03;101191.97;;;15.40;52.05
23281;BME280;11809;56.390;-3.266;2023-04-27T08:38:33;101192.84;;;15.40;51.68
23281;BME280;11809;56.390;-3.266;2023-04-27T08:41:00;101188.56;;;15.38;51.82
23281;BME280;11809;56.390;-3.266;2023-04-27T08:43:46;101201.84;;;15.36;51.92
23281;BME280;11809;56.390;-3.266;2023-04-27T08:46:23;101198.13;;;15.40;51.85
23281;BME280;11809;56.390;-3.266;2023-04-27T08:48:53;101191.97;;;15.40;51.82
23281;BME280;11809;56.390;-3.266;2023-04-27T08:51:21;101191.19;;;15.38;51.95
23281;BME280;11809;56.390;-3.266;2023-04-27T08:53:50;101189.31;;;15.40;51.73
23281;BME280;11809;56.390;-3.266;2023-04-27T08:56:19;101192.84;;;15.40;51.68
23281;BME280;11809;56.390;-3.266;2023-04-27T08:58:52;101186.66;;;15.40;51.66
23281;BME280;11809;56.390;-3.266;2023-04-27T09:01:20;101180.59;;;15.38;51.58
23281;BME280;11809;56.390;-3.266;2023-04-27T09:03:48;101178.97;;;15.35;51.39
23281;BME280;11809;56.390;-3.266;2023-04-27T09:06:16;101176.38;;;15.34;51.72
23281;BME280;11809;56.390;-3.266;2023-04-27T09:11:12;101177.41;;;15.31;51.60
23281;BME280;11809;56.390;-3.266;2023-04-27T09:13:41;101179.03;;;15.34;52.28
23281;BME280;11809;56.390;-3.266;2023-04-27T09:16:12;101178.41;;;15.29;52.21
23281;BME280;11809;56.390;-3.266;2023-04-27T09:18:41;101182.69;;;15.31;52.51
23281;BME280;11809;56.390;-3.266;2023-04-27T09:21:09;101180.00;;;15.33;52.67
23281;BME280;11809;56.390;-3.266;2023-04-27T09:23:37;101183.41;;;15.35;52.64
23281;BME280;11809;56.390;-3.266;2023-04-27T09:26:06;101178.09;;;15.35;52.58
23281;BME280;11809;56.390;-3.266;2023-04-27T09:28:37;101172.97;;;15.32;52.69
23281;BME280;11809;56.390;-3.266;2023-04-27T09:31:05;101178.09;;;15.35;52.63
23281;BME280;11809;56.390;-3.266;2023-04-27T09:33:35;101180.00;;;15.33;52.58
23281;BME280;11809;56.390;-3.266;2023-04-27T09:36:04;101171.09;;;15.34;53.09
23281;BME280;11809;56.390;-3.266;2023-04-27T09:38:32;101174.84;;;15.30;53.05
23281;BME280;11809;56.390;-3.266;2023-04-27T09:41:00;101166.03;;;15.29;53.20
23281;BME280;11809;56.390;-3.266;2023-04-27T09:43:28;101173.75;;;15.34;53.32
23281;BME280;11809;56.390;-3.266;2023-04-27T09:45:57;101166.56;;;15.36;53.04
23281;BME280;11809;56.390;-3.266;2023-04-27T09:48:25;101162.84;;;15.40;52.97
23281;BME280;11809;56.390;-3.266;2023-04-27T09:50:52;101163.75;;;15.39;52.92
23281;BME280;11809;56.390;-3.266;2023-04-27T09:53:26;101162.22;;;15.35;53.13
23281;BME280;11809;56.390;-3.266;2023-04-27T09:56:08;101162.47;;;15.30;53.13
23281;BME280;11809;56.390;-3.266;2023-04-27T10:01:50;101158.09;;;15.29;53.03
23281;BME280;11809;56.390;-3.266;2023-04-27T10:09:59;101148.66;;;15.24;53.04
23281;BME280;11809;56.390;-3.266;2023-04-27T10:12:33;101141.75;;;15.21;53.09
23281;BME280;11809;56.390;-3.266;2023-04-27T10:15:15;101142.75;;;15.18;53.23
23281;BME280;11809;56.390;-3.266;2023-04-27T10:17:50;101134.03;;;15.16;53.13
23281;BME280;11809;56.390;-3.266;2023-04-27T10:20:30;101129.69;;;15.15;53.01
23281;BME280;11809;56.390;-3.266;2023-04-27T10:22:59;101134.97;;;15.15;53.14
23281;BME280;11809;56.390;-3.266;2023-04-27T10:28:01;101126.09;;;15.16;53.23
23281;BME280;11809;56.390;-3.266;2023-04-27T10:30:38;101129.69;;;15.15;53.22
23281;BME280;11809;56.390;-3.266;2023-04-27T10:33:08;101122.66;;;15.14;53.46
23281;BME280;11809;56.390;-3.266;2023-04-27T10:38:17;101112.25;;;15.11;53.34
23281;BME280;11809;56.390;-3.266;2023-04-27T10:41:02;101114.81;;;15.13;53.28
23281;BME280;11809;56.390;-3.266;2023-04-27T10:43:34;101111.84;;;15.02;53.00
23281;BME280;11809;56.390;-3.266;2023-04-27T10:46:14;101108.28;;;15.03;53.15
23281;BME280;11809;56.390;-3.266;2023-04-27T10:48:42;101103.44;;;15.11;53.34
23281;BME280;11809;56.390;-3.266;2023-04-27T10:51:14;101102.34;;;15.15;53.53
23281;BME280;11809;56.390;-3.266;2023-04-27T10:53:42;101099.84;;;15.12;53.57
23281;BME280;11809;56.390;-3.266;2023-04-27T10:56:09;101098.06;;;15.12;53.46
23281;BME280;11809;56.390;-3.266;2023-04-27T10:58:36;101096.19;;;15.14;53.61
23281;BME280;11809;56.390;-3.266;2023-04-27T11:01:07;101093.38;;;15.17;53.78
23281;BME280;11809;56.390;-3.266;2023-04-27T11:03:35;101086.28;;;15.18;53.59
23281;BME280;11809;56.390;-3.266;2023-04-27T11:06:04;101089.88;;;15.17;53.38
23281;BME280;11809;56.390;-3.266;2023-04-27T11:08:31;101086.19;;;15.19;53.30
23281;BME280;11809;56.390;-3.266;2023-04-27T11:11:02;101088.03;;;15.19;53.70
23281;BME280;11809;56.390;-3.266;2023-04-27T11:13:30;101083.50;;;15.21;53.66
23281;BME280;11809;56.390;-3.266;2023-04-27T11:15:59;101076.25;;;15.25;53.54
23281;BME280;11809;56.390;-3.266;2023-04-27T11:18:30;101080.53;;;15.27;53.47
23281;BME280;11809;56.390;-3.266;2023-04-27T11:21:14;101077.78;;;15.29;53.42
23281;BME280;11809;56.390;-3.266;2023-04-27T11:23:42;101070.78;;;15.28;53.50
23281;BME280;11809;56.390;-3.266;2023-04-27T11:28:37;101067.84;;;15.16;52.41
23281;BME280;11809;56.390;-3.266;2023-04-27T11:31:05;101070.78;;;15.28;52.75
23281;BME280;11809;56.390;-3.266;2023-04-27T11:33:33;101063.97;;;15.39;53.31
23281;BME280;11809;56.390;-3.266;2023-04-27T11:36:01;101057.66;;;15.42;53.40
23281;BME280;11809;56.390;-3.266;2023-04-27T11:38:32;101064.84;;;15.40;52.99
23281;BME280;11809;56.390;-3.266;2023-04-27T11:41:03;101065.88;;;15.37;53.20
23281;BME280;11809;56.390;-3.266;2023-04-27T11:43:31;101063.13;;;15.39;53.74
23281;BME280;11809;56.390;-3.266;2023-04-27T11:46:04;101067.50;;;15.40;53.89
23281;BME280;11809;56.390;-3.266;2023-04-27T11:48:35;101058.78;;;15.38;53.82
23281;BME280;11809;56.390;-3.266;2023-04-27T11:51:03;101053.53;;;15.36;54.12
23281;BME280;11809;56.390;-3.266;2023-04-27T11:53:36;101057.97;;;15.36;53.80
23281;BME280;11809;56.390;-3.266;2023-04-27T11:56:06;101056.13;;;15.38;53.79
23281;BME280;11809;56.390;-3.266;2023-04-27T11:58:34;101047.78;;;15.45;53.78
23281;BME280;11809;56.390;-3.266;2023-04-27T12:01:06;101052.84;;;15.50;53.34
23281;BME280;11809;56.390;-3.266;2023-04-27T12:03:33;101048.31;;;15.52;53.51
23281;BME280;11809;56.390;-3.266;2023-04-27T12:06:01;101047.38;;;15.53;53.35
23281;BME280;11809;56.390;-3.266;2023-04-27T12:08:48;101046.19;;;15.58;53.15
23281;BME280;11809;56.390;-3.266;2023-04-27T12:11:15;101031.94;;;15.61;53.02
23281;BME280;11809;56.390;-3.266;2023-04-27T12:13:42;101033.47;;;15.65;52.78
23281;BME280;11809;56.390;-3.266;2023-04-27T12:16:09;101035.19;;;15.66;52.67
23281;BME280;11809;56.390;-3.266;2023-04-27T12:18:37;101033.28;;;15.68;52.65
23281;BME280;11809;56.390;-3.266;2023-04-27T12:21:04;101027.75;;;15.72;52.49
23281;BME280;11809;56.390;-3.266;2023-04-27T12:23:34;101026.75;;;15.75;52.38
23281;BME280;11809;56.390;-3.266;2023-04-27T12:26:01;101024.75;;;15.78;52.21
23281;BME280;11809;56.390;-3.266;2023-04-27T12:28:30;101021.00;;;15.83;52.02
23281;BME280;11809;56.390;-3.266;2023-04-27T12:30:58;101021.44;;;15.91;52.50
23281;BME280;11809;56.390;-3.266;2023-04-27T12:33:25;101019.53;;;15.93;52.23
23281;BME280;11809;56.390;-3.266;2023-04-27T12:35:52;101015.09;;;15.93;52.14
23281;BME280;11809;56.390;-3.266;2023-04-27T12:38:20;101019.09;;;16.00;52.42
23281;BME280;11809;56.390;-3.266;2023-04-27T12:40:48;101003.03;;;16.03;52.06
23281;BME280;11809;56.390;-3.266;2023-04-27T12:43:15;101003.88;;;16.04;52.00
23281;BME280;11809;56.390;-3.266;2023-04-27T12:45:42;101011.22;;;16.14;52.14
23281;BME280;11809;56.390;-3.266;2023-04-27T12:48:09;101002.16;;;16.18;51.85
23281;BME280;11809;56.390;-3.266;2023-04-27T12:50:37;101004.19;;;16.29;51.70
23281;BME280;11809;56.390;-3.266;2023-04-27T12:53:04;101001.09;;;16.36;51.44
23281;BME280;11809;56.390;-3.266;2023-04-27T12:55:32;100999.09;;;16.40;51.55
23281;BME280;11809;56.390;-3.266;2023-04-27T12:58:01;101007.56;;;16.47;51.41
23281;BME280;11809;56.390;-3.266;2023-04-27T13:00:28;101002.59;;;16.56;51.47
23281;BME280;11809;56.390;-3.266;2023-04-27T13:02:55;101003.00;;;16.64;51.04
23281;BME280;11809;56.390;-3.266;2023-04-27T13:05:23;100997.22;;;16.72;50.88